Time;durP1;ratioP1;P1;durP2;ratioP2;P2;SDS_P1;SDS_P2;PMS_P1;PMS_P2;Temp;Humidity;BMP_temperature;BMP_pressure;BME280_temperature;BME280_humidity;BME280_pressure;Samples;Min_cycle;Max_cycle;Signal;HPM_P1;HPM_P2
2023/07/31 00:00:47;;;;;;;3.85;1.67;;;17.40;99.90;;;;;;5045440;28;20203;-73
2023/07/31 00:03:13;;;;;;;3.53;1.88;;;17.40;99.90;;;;;;5047833;28;20621;-76
2023/07/31 00:05:38;;;;;;;4.43;1.63;;;17.40;99.90;;;;;;5047965;28;20211;-76
2023/07/31 00:08:04;;;;;;;4.32;1.77;;;17.30;99.90;;;;;;5042644;28;20227;-76
2023/07/31 00:10:29;;;;;;;2.78;1.73;;;17.30;99.90;;;;;;5047021;28;20233;-76
2023/07/31 00:12:55;;;;;;;1.70;1.10;;;17.30;99.90;;;;;;5047758;28;20212;-73
2023/07/31 00:15:21;;;;;;;4.68;1.88;;;17.30;99.90;;;;;;5047177;28;20212;-74
2023/07/31 00:17:47;;;;;;;4.68;1.80;;;17.20;99.90;;;;;;5050001;28;20238;-74
2023/07/31 00:20:13;;;;;;;2.22;1.52;;;17.20;99.90;;;;;;5051848;28;20210;-74
2023/07/31 00:22:38;;;;;;;3.28;1.70;;;17.20;99.90;;;;;;5052165;28;20167;-74
2023/07/31 00:25:06;;;;;;;4.90;1.67;;;17.10;99.90;;;;;;5046280;28;20227;-74
2023/07/31 00:27:32;;;;;;;2.58;1.42;;;17.10;99.90;;;;;;5044972;28;20712;-74
2023/07/31 00:29:57;;;;;;;2.90;1.60;;;17.20;99.90;;;;;;5045098;28;20241;-74
2023/07/31 00:32:23;;;;;;;4.07;1.58;;;17.10;99.90;;;;;;5051162;28;20355;-74
2023/07/31 00:34:48;;;;;;;5.38;2.03;;;17.20;99.90;;;;;;5046123;28;20180;-74
2023/07/31 00:37:15;;;;;;;3.55;1.80;;;17.20;99.90;;;;;;5045883;28;20191;-74
2023/07/31 00:39:41;;;;;;;4.43;1.80;;;17.00;99.90;;;;;;5049851;28;20195;-74
2023/07/31 00:42:06;;;;;;;2.90;1.52;;;16.90;99.90;;;;;;5047165;28;20546;-74
2023/07/31 00:44:32;;;;;;;4.20;1.70;;;17.00;99.90;;;;;;5048289;28;20204;-74
2023/07/31 00:46:59;;;;;;;6.13;1.90;;;17.10;99.90;;;;;;5044538;28;20188;-74
2023/07/31 00:49:26;;;;;;;3.08;1.90;;;17.10;99.90;;;;;;5057945;28;20176;-74
2023/07/31 00:51:52;;;;;;;2.90;1.70;;;17.00;99.90;;;;;;5050393;28;20200;-74
2023/07/31 00:54:18;;;;;;;5.10;2.08;;;17.20;99.90;;;;;;5046998;28;20201;-74
2023/07/31 00:56:45;;;;;;;3.92;1.60;;;17.00;99.90;;;;;;5050792;28;20207;-74
2023/07/31 00:59:11;;;;;;;3.67;2.05;;;17.10;99.90;;;;;;5043131;28;20284;-75
2023/07/31 01:01:37;;;;;;;4.50;2.20;;;17.10;99.90;;;;;;5048339;28;20745;-75
2023/07/31 01:04:03;;;;;;;3.97;1.83;;;17.10;99.90;;;;;;5047097;28;20734;-78
2023/07/31 01:06:31;;;;;;;5.38;1.85;;;17.00;99.90;;;;;;5050269;28;20192;-74
2023/07/31 01:09:12;;;;;;;5.22;2.17;;;17.00;99.90;;;;;;5048290;28;20230;-74
2023/07/31 01:12:01;;;;;;;4.22;2.42;;;17.00;99.90;;;;;;5051420;28;20195;-75
2023/07/31 01:14:26;;;;;;;4.15;1.88;;;17.00;99.90;;;;;;5047500;28;21065;-74
2023/07/31 01:16:52;;;;;;;3.55;1.75;;;17.00;99.90;;;;;;5049158;28;20246;-74
2023/07/31 01:19:21;;;;;;;3.75;1.73;;;17.10;99.90;;;;;;5054908;28;20179;-76
2023/07/31 01:22:29;;;;;;;3.78;1.77;;;17.10;99.90;;;;;;5041429;28;20207;-74
2023/07/31 01:25:28;;;;;;;5.35;2.30;;;17.10;99.90;;;;;;5048096;28;20199;-75
2023/07/31 01:28:01;;;;;;;3.78;1.88;;;17.10;99.90;;;;;;5045574;28;20406;-74
2023/07/31 01:30:33;;;;;;;4.82;1.70;;;17.10;99.90;;;;;;5050087;28;20290;-74
2023/07/31 01:33:01;;;;;;;3.90;1.92;;;17.20;99.90;;;;;;5049779;28;20235;-75
2023/07/31 01:35:27;;;;;;;3.97;1.98;;;17.20;99.90;;;;;;5048835;28;20207;-74
2023/07/31 01:37:54;;;;;;;6.43;2.40;;;17.30;99.90;;;;;;5046171;28;20192;-73
2023/07/31 01:40:19;;;;;;;4.95;1.77;;;17.20;99.90;;;;;;5049098;28;20253;-75
2023/07/31 01:42:45;;;;;;;2.08;1.80;;;17.10;99.90;;;;;;5050224;28;20203;-74
2023/07/31 01:45:11;;;;;;;4.32;2.25;;;17.20;99.90;;;;;;5048652;28;20257;-72
2023/07/31 01:47:37;;;;;;;3.13;1.88;;;17.10;99.90;;;;;;5047312;28;20212;-74
2023/07/31 01:50:03;;;;;;;2.55;1.90;;;17.10;99.90;;;;;;5047810;28;20286;-74
2023/07/31 01:52:29;;;;;;;4.72;2.03;;;17.20;99.90;;;;;;5048151;28;20673;-74
2023/07/31 01:54:55;;;;;;;2.67;1.70;;;17.20;99.90;;;;;;5046948;28;20202;-73
2023/07/31 01:57:21;;;;;;;3.70;1.80;;;17.30;99.90;;;;;;5049830;28;20290;-74
2023/07/31 01:59:46;;;;;;;4.13;1.90;;;17.20;99.90;;;;;;5047296;28;20230;-74
2023/07/31 02:02:13;;;;;;;5.53;1.80;;;17.30;99.90;;;;;;5048672;28;20635;-72
2023/07/31 02:04:40;;;;;;;4.30;2.30;;;17.20;99.90;;;;;;5047872;28;20167;-75
2023/07/31 02:07:05;;;;;;;6.68;2.22;;;17.30;99.90;;;;;;5044902;28;20690;-73
2023/07/31 02:09:31;;;;;;;3.55;1.95;;;17.30;99.90;;;;;;5047515;28;20204;-74
2023/07/31 02:11:56;;;;;;;3.53;2.15;;;17.30;99.90;;;;;;5048011;28;20563;-74
2023/07/31 02:14:22;;;;;;;5.93;2.13;;;17.40;99.90;;;;;;5049541;28;20212;-74
2023/07/31 02:16:48;;;;;;;2.92;1.98;;;17.40;99.90;;;;;;5045906;28;20215;-74
2023/07/31 02:19:13;;;;;;;3.28;2.03;;;17.40;99.90;;;;;;5039796;28;20176;-73
2023/07/31 02:21:39;;;;;;;4.80;2.10;;;17.30;99.90;;;;;;5041441;28;20200;-74
2023/07/31 02:24:04;;;;;;;3.85;2.00;;;17.20;99.90;;;;;;5042829;28;20206;-73
2023/07/31 02:26:30;;;;;;;4.45;2.40;;;17.10;99.90;;;;;;5045758;28;20235;-75
2023/07/31 02:28:56;;;;;;;5.88;2.20;;;17.10;99.90;;;;;;5048104;28;20194;-75
2023/07/31 02:31:21;;;;;;;2.78;1.90;;;17.20;99.90;;;;;;5043625;28;20535;-74
2023/07/31 02:33:47;;;;;;;3.83;2.08;;;17.20;99.90;;;;;;5047610;28;20219;-73
2023/07/31 02:36:13;;;;;;;5.60;2.10;;;17.20;99.90;;;;;;5048096;28;20246;-75
2023/07/31 02:38:38;;;;;;;3.80;2.30;;;17.20;99.90;;;;;;5047214;28;20203;-75
2023/07/31 02:41:04;;;;;;;6.20;2.22;;;17.30;99.90;;;;;;5037988;28;20277;-73
2023/07/31 02:43:29;;;;;;;5.53;2.22;;;17.10;99.90;;;;;;5047301;28;20203;-74
2023/07/31 02:45:55;;;;;;;5.03;2.30;;;17.10;99.90;;;;;;5047234;28;20215;-74
2023/07/31 02:48:21;;;;;;;5.97;2.30;;;17.10;99.90;;;;;;5048485;28;20215;-74
2023/07/31 02:50:47;;;;;;;5.05;2.20;;;17.10;99.90;;;;;;5047233;28;20219;-74
2023/07/31 02:53:14;;;;;;;4.30;2.33;;;17.10;99.90;;;;;;5042674;28;20639;-75
2023/07/31 02:55:40;;;;;;;4.22;2.72;;;17.30;99.90;;;;;;5047900;28;20176;-74
2023/07/31 02:58:06;;;;;;;7.18;2.20;;;17.30;99.90;;;;;;5059912;28;20252;-73
2023/07/31 03:00:31;;;;;;;6.47;2.22;;;17.20;99.90;;;;;;5047158;28;20214;-74
2023/07/31 03:02:57;;;;;;;5.68;2.60;;;17.00;99.90;;;;;;5048544;28;20252;-74
2023/07/31 03:05:23;;;;;;;8.18;4.38;;;17.10;99.90;;;;;;5048366;28;20207;-74
2023/07/31 03:07:48;;;;;;;6.88;3.30;;;17.20;99.90;;;;;;5047223;28;20214;-74
2023/07/31 03:10:14;;;;;;;4.57;3.30;;;17.20;99.90;;;;;;5046005;28;20168;-74
2023/07/31 03:12:40;;;;;;;4.82;2.92;;;17.10;99.90;;;;;;5046504;28;20572;-74
2023/07/31 03:15:06;;;;;;;5.82;2.83;;;17.10;99.90;;;;;;5046076;28;20295;-75
2023/07/31 03:17:32;;;;;;;7.43;3.25;;;17.00;99.90;;;;;;5040156;28;20632;-74
2023/07/31 03:19:58;;;;;;;8.75;4.15;;;17.10;99.90;;;;;;5045763;28;20174;-74
2023/07/31 03:22:23;;;;;;;6.72;4.05;;;17.10;99.90;;;;;;5047800;28;20179;-74
2023/07/31 03:24:49;;;;;;;8.52;4.05;;;17.10;99.90;;;;;;5044120;28;20200;-74
2023/07/31 03:27:14;;;;;;;5.22;2.88;;;17.10;99.90;;;;;;5048143;28;20215;-74
2023/07/31 03:29:40;;;;;;;6.10;3.40;;;17.10;99.90;;;;;;5043916;28;20954;-74
2023/07/31 03:32:06;;;;;;;7.50;3.58;;;17.20;99.90;;;;;;5047326;28;20220;-73
2023/07/31 03:34:32;;;;;;;5.40;3.53;;;17.10;99.90;;;;;;5040980;28;20168;-74
2023/07/31 03:36:58;;;;;;;10.30;3.70;;;17.10;99.90;;;;;;5048257;28;20689;-76
2023/07/31 03:39:24;;;;;;;5.82;3.20;;;17.20;99.90;;;;;;5047909;28;20253;-74
2023/07/31 03:41:49;;;;;;;4.80;3.10;;;17.20;99.90;;;;;;5046531;28;20599;-75
2023/07/31 03:44:15;;;;;;;5.47;3.25;;;17.10;99.90;;;;;;5044620;28;20211;-75
2023/07/31 03:46:40;;;;;;;6.00;3.70;;;17.10;99.90;;;;;;5044324;28;20195;-74
2023/07/31 03:49:06;;;;;;;6.10;3.40;;;17.00;99.90;;;;;;5047976;28;20214;-75
2023/07/31 03:51:32;;;;;;;6.88;3.20;;;17.10;99.90;;;;;;5047588;28;20966;-74
2023/07/31 03:53:57;;;;;;;4.97;3.35;;;17.10;99.90;;;;;;5044038;28;20217;-73
2023/07/31 03:56:23;;;;;;;7.25;3.88;;;17.20;99.90;;;;;;5043949;28;20419;-74
2023/07/31 03:58:48;;;;;;;3.63;3.10;;;17.20;99.90;;;;;;5046629;28;20175;-74
2023/07/31 04:01:14;;;;;;;5.75;3.35;;;17.20;99.90;;;;;;5046188;28;20176;-74
2023/07/31 04:03:40;;;;;;;5.25;3.38;;;17.20;99.90;;;;;;5046342;28;20203;-74
2023/07/31 04:06:06;;;;;;;7.93;3.25;;;17.10;99.90;;;;;;5046263;28;20210;-74
2023/07/31 04:08:32;;;;;;;6.93;3.80;;;17.10;99.90;;;;;;5047532;28;20579;-76
2023/07/31 04:10:58;;;;;;;7.13;3.45;;;17.20;99.90;;;;;;5047538;28;20191;-74
2023/07/31 04:13:23;;;;;;;5.97;3.22;;;17.30;99.90;;;;;;5047975;28;20199;-73
2023/07/31 04:15:50;;;;;;;7.20;3.50;;;17.30;99.90;;;;;;5047414;28;20195;-75
2023/07/31 04:18:16;;;;;;;7.72;3.47;;;17.20;99.90;;;;;;5047312;28;20299;-74
2023/07/31 04:20:42;;;;;;;6.30;3.53;;;17.20;99.90;;;;;;5047342;28;20678;-74
2023/07/31 04:23:07;;;;;;;7.68;3.33;;;17.10;99.90;;;;;;5046120;28;20249;-75
2023/07/31 04:25:34;;;;;;;4.82;3.10;;;17.10;99.90;;;;;;5044741;28;20236;-74
2023/07/31 04:28:00;;;;;;;7.13;3.60;;;17.20;99.90;;;;;;5039498;28;20237;-74
2023/07/31 04:30:26;;;;;;;4.38;3.33;;;17.20;99.90;;;;;;5044479;28;20308;-76
2023/07/31 04:32:51;;;;;;;4.63;3.30;;;17.20;99.90;;;;;;5045578;28;20226;-76
2023/07/31 04:35:17;;;;;;;5.93;2.88;;;17.30;99.90;;;;;;5045600;28;20735;-75
2023/07/31 04:37:44;;;;;;;6.85;3.50;;;17.40;99.90;;;;;;5045507;28;20269;-75
2023/07/31 04:40:10;;;;;;;5.32;2.85;;;17.50;99.90;;;;;;5038349;28;20521;-76
2023/07/31 04:42:36;;;;;;;6.22;3.10;;;17.30;99.90;;;;;;5044579;28;20218;-76
2023/07/31 04:45:01;;;;;;;4.43;2.60;;;17.30;99.90;;;;;;5038400;28;20204;-75
2023/07/31 04:47:27;;;;;;;4.32;3.33;;;17.30;99.90;;;;;;5040795;28;20261;-74
2023/07/31 04:49:52;;;;;;;3.92;3.35;;;17.20;99.90;;;;;;5043951;28;20230;-75
2023/07/31 04:52:18;;;;;;;8.40;3.17;;;17.10;99.90;;;;;;5042584;28;20199;-76
2023/07/31 04:54:44;;;;;;;4.82;2.83;;;17.20;99.90;;;;;;5051788;28;20276;-76
2023/07/31 04:57:09;;;;;;;6.90;3.13;;;17.30;99.90;;;;;;5046608;28;20206;-76
2023/07/31 04:59:35;;;;;;;6.55;3.13;;;17.20;99.90;;;;;;5051735;28;20210;-73
2023/07/31 05:02:00;;;;;;;5.38;3.13;;;17.40;99.90;;;;;;5042595;28;20704;-76
2023/07/31 05:04:26;;;;;;;6.55;3.40;;;17.40;99.90;;;;;;5048902;28;20172;-74
2023/07/31 05:06:52;;;;;;;5.78;3.40;;;17.30;99.90;;;;;;5047531;28;20197;-74
2023/07/31 05:09:18;;;;;;;7.30;3.47;;;17.40;99.90;;;;;;5049933;28;20210;-73
2023/07/31 05:11:43;;;;;;;6.90;3.78;;;17.50;99.90;;;;;;5050613;28;20583;-74
2023/07/31 05:14:09;;;;;;;5.32;3.22;;;17.40;99.90;;;;;;5050429;28;20226;-76
2023/07/31 05:16:35;;;;;;;4.45;3.25;;;17.60;99.90;;;;;;5045946;28;20172;-75
2023/07/31 05:19:00;;;;;;;5.80;3.03;;;17.60;99.90;;;;;;5044154;28;20223;-76
2023/07/31 05:21:26;;;;;;;11.13;3.78;;;17.80;99.90;;;;;;5043532;28;20298;-75
2023/07/31 05:23:51;;;;;;;6.30;3.15;;;17.90;99.90;;;;;;5039358;28;20196;-76
2023/07/31 05:26:17;;;;;;;6.38;3.30;;;17.90;99.90;;;;;;5046544;28;20289;-75
2023/07/31 05:28:43;;;;;;;6.90;3.33;;;17.90;99.90;;;;;;5043081;28;20207;-76
2023/07/31 05:31:08;;;;;;;6.25;3.33;;;18.10;99.90;;;;;;5044032;28;20184;-74
2023/07/31 05:33:34;;;;;;;4.47;3.10;;;18.10;99.90;;;;;;5041300;28;20391;-73
2023/07/31 05:36:00;;;;;;;7.45;3.42;;;18.00;99.90;;;;;;5045542;28;20246;-74
2023/07/31 05:38:25;;;;;;;6.47;3.33;;;18.00;99.90;;;;;;5047180;28;20272;-77
2023/07/31 05:40:51;;;;;;;12.48;3.83;;;17.80;99.90;;;;;;5045846;28;20700;-76
2023/07/31 05:43:17;;;;;;;7.32;3.08;;;17.80;99.90;;;;;;5045736;28;20180;-74
2023/07/31 05:45:43;;;;;;;8.75;3.33;;;17.90;99.90;;;;;;5047830;28;20215;-74
2023/07/31 05:48:09;;;;;;;6.28;3.40;;;18.10;99.90;;;;;;5049653;28;20204;-74
2023/07/31 05:50:34;;;;;;;4.18;2.95;;;18.00;99.90;;;;;;5049394;28;20708;-75
2023/07/31 05:53:00;;;;;;;5.03;3.00;;;18.00;99.90;;;;;;5046389;28;20202;-77
2023/07/31 05:55:26;;;;;;;5.82;2.92;;;18.10;99.90;;;;;;5042456;28;20651;-74
2023/07/31 05:57:53;;;;;;;7.25;3.40;;;18.00;99.90;;;;;;5040371;28;20227;-76
2023/07/31 06:00:18;;;;;;;6.38;2.85;;;17.90;99.90;;;;;;5037464;28;20204;-75
2023/07/31 06:02:44;;;;;;;4.05;2.60;;;17.90;99.90;;;;;;5041122;28;20207;-75
2023/07/31 06:05:10;;;;;;;5.32;2.70;;;17.80;99.90;;;;;;5054303;28;20211;-75
2023/07/31 06:07:36;;;;;;;4.45;3.00;;;18.00;99.90;;;;;;5047502;28;20265;-73
2023/07/31 06:10:04;;;;;;;5.10;3.00;;;17.90;99.90;;;;;;5060984;28;20214;-75
2023/07/31 06:12:31;;;;;;;8.15;4.45;;;17.90;99.90;;;;;;5044289;28;20712;-74
2023/07/31 06:14:57;;;;;;;20.70;12.85;;;17.90;99.90;;;;;;5043378;28;20214;-74
2023/07/31 06:17:22;;;;;;;8.82;4.50;;;18.10;99.90;;;;;;5046691;28;20686;-74
2023/07/31 06:19:49;;;;;;;6.35;3.33;;;18.10;99.90;;;;;;5047065;28;20176;-75
2023/07/31 06:22:14;;;;;;;6.65;3.25;;;18.00;99.90;;;;;;5048472;28;20211;-76
2023/07/31 06:24:40;;;;;;;9.02;3.08;;;18.20;99.90;;;;;;5046564;28;20232;-75
2023/07/31 06:27:06;;;;;;;4.72;2.97;;;18.40;99.90;;;;;;5049012;28;20294;-76
2023/07/31 06:29:32;;;;;;;5.70;3.08;;;18.30;99.90;;;;;;5049369;28;20297;-75
2023/07/31 06:31:58;;;;;;;8.70;2.85;;;18.30;99.90;;;;;;5037097;28;20267;-74
2023/07/31 06:34:23;;;;;;;4.18;2.80;;;18.50;99.90;;;;;;5042188;28;20223;-74
2023/07/31 06:36:49;;;;;;;4.32;2.47;;;18.70;99.90;;;;;;5040890;28;20290;-75
2023/07/31 06:39:16;;;;;;;5.50;3.00;;;18.70;99.90;;;;;;5048149;28;20212;-74
2023/07/31 06:41:42;;;;;;;5.25;2.55;;;19.00;99.90;;;;;;5038778;28;20752;-75
2023/07/31 06:44:08;;;;;;;5.25;2.88;;;19.10;99.90;;;;;;5041009;28;20282;-74
2023/07/31 06:46:34;;;;;;;4.25;2.80;;;19.40;99.90;;;;;;5046135;28;20262;-75
2023/07/31 06:48:59;;;;;;;4.50;2.55;;;19.50;99.90;;;;;;5043036;28;20658;-75
2023/07/31 06:51:25;;;;;;;4.63;2.50;;;19.50;99.90;;;;;;5047280;28;20208;-76
2023/07/31 06:53:50;;;;;;;6.38;2.63;;;19.60;99.90;;;;;;5046178;28;20310;-76
2023/07/31 06:56:16;;;;;;;6.30;2.33;;;19.70;99.90;;;;;;5046335;28;20219;-75
2023/07/31 06:58:42;;;;;;;4.80;2.25;;;19.80;99.90;;;;;;5043383;28;20200;-75
2023/07/31 07:01:07;;;;;;;6.82;2.30;;;20.00;99.90;;;;;;5043505;28;20221;-76
2023/07/31 07:03:33;;;;;;;6.82;4.97;;;20.50;99.90;;;;;;5048085;28;20204;-76
2023/07/31 07:05:59;;;;;;;7.00;2.45;;;20.30;99.90;;;;;;5045284;28;20218;-74
2023/07/31 07:08:25;;;;;;;3.78;2.42;;;19.80;99.90;;;;;;5039281;28;20222;-75
2023/07/31 07:10:50;;;;;;;4.25;2.88;;;19.50;99.90;;;;;;5045452;28;20179;-75
2023/07/31 07:13:18;;;;;;;6.05;2.65;;;19.40;99.90;;;;;;5055882;28;20207;-76
2023/07/31 07:15:48;;;;;;;5.95;2.15;;;19.40;99.90;;;;;;5041891;28;20252;-75
2023/07/31 07:18:13;;;;;;;4.93;2.67;;;19.40;99.90;;;;;;5041362;28;20220;-75
2023/07/31 07:20:39;;;;;;;3.78;2.40;;;19.30;99.90;;;;;;5043448;28;20227;-75
2023/07/31 07:23:05;;;;;;;8.13;2.85;;;19.40;99.90;;;;;;5037755;28;20207;-73
2023/07/31 07:25:31;;;;;;;4.90;2.40;;;19.50;99.90;;;;;;5039243;28;20705;-75
2023/07/31 07:27:56;;;;;;;5.75;2.53;;;19.30;99.90;;;;;;5041892;28;20298;-76
2023/07/31 07:30:24;;;;;;;4.82;2.45;;;19.10;99.90;;;;;;5045014;28;20203;-75
2023/07/31 07:32:49;;;;;;;6.00;2.28;;;18.80;99.90;;;;;;5043430;28;20223;-75
2023/07/31 07:35:15;;;;;;;4.97;2.58;;;18.70;99.90;;;;;;5057918;28;20418;-78
2023/07/31 07:37:41;;;;;;;7.75;4.85;;;18.70;99.90;;;;;;5047508;28;20306;-75
2023/07/31 07:40:07;;;;;;;5.05;3.13;;;18.60;99.90;;;;;;5047473;28;20207;-74
2023/07/31 07:42:32;;;;;;;6.07;2.65;;;18.80;99.90;;;;;;5047963;28;20208;-75
2023/07/31 07:44:58;;;;;;;7.82;2.55;;;18.70;99.90;;;;;;5040367;28;20295;-75
2023/07/31 07:47:24;;;;;;;3.65;2.33;;;18.90;99.90;;;;;;5040929;28;20238;-76
2023/07/31 07:49:49;;;;;;;7.15;3.00;;;19.10;99.90;;;;;;5043861;28;20223;-75
2023/07/31 07:52:15;;;;;;;6.25;3.05;;;19.20;99.90;;;;;;5040110;28;20211;-75
2023/07/31 07:54:41;;;;;;;3.30;2.38;;;19.30;99.90;;;;;;5042623;28;20693;-75
2023/07/31 07:57:06;;;;;;;6.22;2.50;;;19.20;99.90;;;;;;5042950;28;20211;-76
2023/07/31 07:59:32;;;;;;;6.22;2.22;;;19.00;99.90;;;;;;5046382;28;20769;-75
2023/07/31 08:01:57;;;;;;;5.90;2.50;;;19.00;99.90;;;;;;5042145;28;20176;-75
2023/07/31 08:04:23;;;;;;;6.30;2.17;;;19.00;99.90;;;;;;5040823;28;20222;-75
2023/07/31 08:06:49;;;;;;;3.65;2.40;;;18.90;99.90;;;;;;5044430;28;20685;-76
2023/07/31 08:09:14;;;;;;;5.07;2.40;;;18.90;99.90;;;;;;5046766;28;20717;-73
2023/07/31 08:11:40;;;;;;;4.80;2.38;;;19.00;99.90;;;;;;5045966;28;20548;-73
2023/07/31 08:14:05;;;;;;;3.75;2.38;;;19.00;99.90;;;;;;5047828;28;20219;-72
2023/07/31 08:16:31;;;;;;;4.40;3.35;;;18.90;99.90;;;;;;5046328;28;20253;-76
2023/07/31 08:18:57;;;;;;;3.60;2.58;;;19.00;99.90;;;;;;5046406;28;20219;-74
2023/07/31 08:21:22;;;;;;;4.85;3.08;;;19.00;99.90;;;;;;5041608;28;20291;-75
2023/07/31 08:23:48;;;;;;;3.80;2.90;;;19.10;99.90;;;;;;5039030;28;20590;-74
2023/07/31 08:26:18;;;;;;;4.97;2.70;;;19.20;99.90;;;;;;5030966;28;20208;-74
2023/07/31 08:28:44;;;;;;;2.30;1.85;;;19.20;99.90;;;;;;5044718;28;20203;-75
2023/07/31 08:31:10;;;;;;;2.90;2.33;;;19.20;99.90;;;;;;5047867;28;20168;-75
2023/07/31 08:33:36;;;;;;;3.83;2.20;;;19.20;99.90;;;;;;5046356;28;20245;-75
2023/07/31 08:36:03;;;;;;;3.78;2.05;;;19.30;99.90;;;;;;5039506;28;20200;-75
2023/07/31 08:38:29;;;;;;;2.17;1.67;;;19.00;99.90;;;;;;5044578;28;20234;-75
2023/07/31 08:40:56;;;;;;;3.38;1.85;;;19.00;99.90;;;;;;5045379;28;20176;-74
2023/07/31 08:43:25;;;;;;;3.58;2.38;;;18.90;99.90;;;;;;5050016;28;20184;-75
2023/07/31 08:45:51;;;;;;;3.63;2.03;;;19.20;99.90;;;;;;5049817;28;20275;-75
2023/07/31 08:48:17;;;;;;;3.08;2.20;;;19.50;99.90;;;;;;5046999;28;20307;-74
2023/07/31 08:50:43;;;;;;;2.65;1.90;;;19.60;99.90;;;;;;5048203;28;20727;-74
2023/07/31 08:53:09;;;;;;;2.30;1.90;;;20.00;99.90;;;;;;5047546;28;20293;-75
2023/07/31 08:55:36;;;;;;;3.58;1.80;;;20.10;99.90;;;;;;5048177;28;20202;-74
2023/07/31 08:58:04;;;;;;;5.53;2.10;;;20.10;99.90;;;;;;5045598;28;20686;-74
2023/07/31 09:00:31;;;;;;;5.25;1.92;;;20.20;99.90;;;;;;5043782;28;20208;-76
2023/07/31 09:03:03;;;;;;;3.45;2.03;;;20.20;99.90;;;;;;5042868;28;20227;-75
2023/07/31 09:05:31;;;;;;;3.95;2.00;;;20.10;99.90;;;;;;5049297;28;20204;-74
2023/07/31 09:07:57;;;;;;;8.55;2.95;;;20.20;99.90;;;;;;5046755;28;20729;-72
2023/07/31 09:10:23;;;;;;;2.75;1.83;;;20.30;99.90;;;;;;5045816;28;20263;-75
2023/07/31 09:12:52;;;;;;;2.78;1.75;;;20.40;99.90;;;;;;5046124;28;20457;-75
2023/07/31 09:15:18;;;;;;;3.53;2.45;;;20.50;99.90;;;;;;5049684;28;20287;-75
2023/07/31 09:17:44;;;;;;;3.45;1.90;;;20.40;99.90;;;;;;5047197;28;20260;-75
2023/07/31 09:20:16;;;;;;;2.33;1.98;;;20.20;99.90;;;;;;5050917;28;20219;-75
2023/07/31 09:22:43;;;;;;;5.78;1.73;;;20.10;99.90;;;;;;5046836;28;20202;-75
2023/07/31 09:25:21;;;;;;;2.80;1.95;;;20.10;99.90;;;;;;5045686;28;20596;-75
2023/07/31 09:27:54;;;;;;;2.92;1.92;;;20.00;99.90;;;;;;5050857;28;20211;-75
2023/07/31 09:30:21;;;;;;;4.32;1.85;;;19.90;99.90;;;;;;5048708;28;20210;-75
2023/07/31 09:32:48;;;;;;;2.33;2.00;;;19.60;99.90;;;;;;5050377;28;20634;-75
2023/07/31 09:35:29;;;;;;;2.15;1.63;;;19.40;99.90;;;;;;5042192;28;20207;-75
2023/07/31 09:38:24;;;;;;;3.50;1.27;;;19.20;99.90;;;;;;5055659;28;20199;-76
2023/07/31 09:40:50;;;;;;;2.70;1.38;;;19.20;99.90;;;;;;5052702;28;20556;-75
2023/07/31 09:43:23;;;;;;;2.83;1.80;;;19.30;99.90;;;;;;5037840;28;20202;-75
2023/07/31 09:45:55;;;;;;;1.58;1.25;;;19.30;99.90;;;;;;5039732;28;20214;-75
2023/07/31 09:48:23;;;;;;;1.80;1.42;;;19.30;99.90;;;;;;5043863;28;20672;-75
2023/07/31 09:50:49;;;;;;;2.13;1.20;;;19.40;99.90;;;;;;5045768;28;20204;-76
2023/07/31 09:53:16;;;;;;;2.25;1.65;;;19.50;99.90;;;;;;5044598;28;20219;-75
2023/07/31 09:55:42;;;;;;;3.78;2.42;;;19.50;99.90;;;;;;5045796;28;20669;-74
2023/07/31 09:58:12;;;;;;;2.25;1.15;;;19.60;99.90;;;;;;5046592;28;20199;-74
2023/07/31 10:00:38;;;;;;;3.38;1.70;;;19.70;99.90;;;;;;5044769;28;20195;-77
2023/07/31 10:03:06;;;;;;;2.15;1.50;;;19.70;99.90;;;;;;5047928;28;20204;-75
2023/07/31 10:05:39;;;;;;;3.60;2.17;;;19.60;99.90;;;;;;5048037;28;20253;-75
2023/07/31 10:08:08;;;;;;;2.20;1.48;;;19.70;99.90;;;;;;5049165;28;20296;-75
2023/07/31 10:10:36;;;;;;;2.42;1.63;;;20.20;99.90;;;;;;5050323;28;20178;-73
2023/07/31 10:13:03;;;;;;;3.85;1.83;;;20.20;99.90;;;;;;5044057;28;20203;-75
2023/07/31 10:15:30;;;;;;;2.53;2.00;;;20.20;99.90;;;;;;5040356;28;20698;-76
2023/07/31 10:17:57;;;;;;;2.85;2.55;;;20.10;99.90;;;;;;5043393;28;20211;-75
2023/07/31 10:20:23;;;;;;;4.50;3.00;;;19.80;99.90;;;;;;5043898;28;20694;-74
2023/07/31 10:22:49;;;;;;;4.00;2.33;;;19.80;99.90;;;;;;5043113;28;20198;-75
2023/07/31 10:25:19;;;;;;;5.25;3.40;;;19.70;99.90;;;;;;5041681;28;20654;-76
2023/07/31 10:27:47;;;;;;;7.15;4.22;;;19.70;99.90;;;;;;5038523;28;20213;-75
2023/07/31 10:30:15;;;;;;;6.95;4.30;;;19.70;99.90;;;;;;5045954;28;20234;-75
2023/07/31 10:32:41;;;;;;;6.15;3.13;;;20.10;99.90;;;;;;5047979;28;20230;-75
2023/07/31 10:38:29;;;;;;;5.18;3.20;;;20.90;99.90;;;;;;5034928;28;20717;-74
2023/07/31 10:41:08;;;;;;;6.90;3.13;;;21.00;99.90;;;;;;5045294;28;20176;-78
2023/07/31 10:43:34;;;;;;;4.93;3.15;;;21.20;99.90;;;;;;5047307;28;20638;-75
2023/07/31 10:46:00;;;;;;;3.83;3.05;;;21.50;99.90;;;;;;5047948;28;20199;-75
2023/07/31 10:48:33;;;;;;;6.97;3.60;;;21.80;99.90;;;;;;5040591;28;20247;-75
2023/07/31 10:50:59;;;;;;;4.75;3.38;;;22.20;99.90;;;;;;5038007;28;20199;-76
2023/07/31 10:53:32;;;;;;;5.50;3.00;;;22.40;99.90;;;;;;5038639;28;20223;-75
2023/07/31 10:55:59;;;;;;;7.88;3.40;;;22.30;99.90;;;;;;5044574;28;20176;-75
2023/07/31 10:58:26;;;;;;;4.72;3.22;;;22.30;99.90;;;;;;5036836;28;20780;-74
2023/07/31 11:00:56;;;;;;;5.93;3.40;;;22.00;99.90;;;;;;5042898;28;20238;-75
2023/07/31 11:03:25;;;;;;;6.35;3.58;;;22.40;99.90;;;;;;5041888;28;20211;-75
2023/07/31 11:06:03;;;;;;;5.88;3.38;;;22.50;99.90;;;;;;5045047;28;20196;-75
2023/07/31 11:08:41;;;;;;;4.63;3.08;;;22.60;99.90;;;;;;5042156;28;20572;-75
2023/07/31 11:11:09;;;;;;;4.57;3.10;;;22.60;99.90;;;;;;5045014;28;20210;-75
2023/07/31 11:13:42;;;;;;;7.55;3.63;;;22.30;99.90;;;;;;5046751;28;20283;-75
2023/07/31 11:16:09;;;;;;;12.63;8.50;;;21.90;99.90;;;;;;5043574;28;20205;-74
2023/07/31 11:18:35;;;;;;;11.35;4.13;;;21.90;99.90;;;;;;5058620;28;20776;-75
2023/07/31 11:21:00;;;;;;;6.47;3.63;;;21.90;99.90;;;;;;5047682;28;20278;-75
2023/07/31 11:23:26;;;;;;;12.25;5.03;;;22.00;99.90;;;;;;5045573;28;20287;-75
2023/07/31 11:25:52;;;;;;;4.25;3.08;;;22.10;99.90;;;;;;5046379;28;20779;-75
2023/07/31 11:28:19;;;;;;;4.72;3.50;;;22.10;99.90;;;;;;5041440;28;20543;-74
2023/07/31 11:30:46;;;;;;;6.55;3.72;;;22.00;99.90;;;;;;5040476;28;20660;-74
2023/07/31 11:33:13;;;;;;;5.97;3.47;;;22.00;99.90;;;;;;5041527;28;20299;-76
2023/07/31 11:35:49;;;;;;;4.78;2.97;;;22.10;99.90;;;;;;5042720;28;20200;-74
2023/07/31 11:38:27;;;;;;;5.63;3.08;;;21.90;99.90;;;;;;5042072;28;20219;-75
2023/07/31 11:40:54;;;;;;;6.22;3.20;;;21.80;99.90;;;;;;5043332;28;20184;-76
2023/07/31 11:43:21;;;;;;;4.68;2.90;;;21.80;99.90;;;;;;5041393;28;20228;-75
2023/07/31 11:45:57;;;;;;;3.95;2.70;;;21.70;99.90;;;;;;5043547;28;20949;-75
2023/07/31 11:48:33;;;;;;;6.10;3.20;;;21.70;99.90;;;;;;5041134;28;20689;-75
2023/07/31 11:51:00;;;;;;;6.25;2.70;;;21.70;99.90;;;;;;5045876;28;20277;-75
2023/07/31 11:53:31;;;;;;;5.07;3.03;;;21.70;99.90;;;;;;5045197;28;20298;-75
2023/07/31 11:55:59;;;;;;;3.33;2.70;;;21.70;99.90;;;;;;5045772;28;20175;-75
2023/07/31 11:58:25;;;;;;;7.45;3.45;;;21.80;99.90;;;;;;5047103;28;20294;-76
2023/07/31 12:00:52;;;;;;;3.80;2.90;;;21.90;99.90;;;;;;5039534;28;20208;-75
2023/07/31 12:03:18;;;;;;;4.88;2.60;;;21.90;99.90;;;;;;5034993;28;20204;-74
2023/07/31 12:05:46;;;;;;;4.15;2.72;;;21.80;99.90;;;;;;5039575;28;20196;-75
2023/07/31 12:08:12;;;;;;;4.55;2.70;;;21.70;99.90;;;;;;5039821;28;20345;-75
2023/07/31 12:10:40;;;;;;;6.43;3.10;;;21.80;99.90;;;;;;5036758;28;20639;-75
2023/07/31 12:13:13;;;;;;;4.93;3.00;;;21.80;99.90;;;;;;5047664;28;20256;-72
2023/07/31 12:15:43;;;;;;;8.30;2.92;;;21.90;99.90;;;;;;5045979;28;20310;-75
2023/07/31 12:18:20;;;;;;;4.68;3.42;;;22.00;99.90;;;;;;5046069;28;20226;-75
2023/07/31 12:20:57;;;;;;;8.75;3.00;;;22.20;99.90;;;;;;5044036;28;20199;-75
2023/07/31 12:23:28;;;;;;;8.57;3.10;;;22.50;99.90;;;;;;5045796;28;20207;-75
2023/07/31 12:26:13;;;;;;;3.78;2.40;;;22.50;99.90;;;;;;5047936;28;20164;-75
2023/07/31 12:28:46;;;;;;;4.80;2.67;;;22.70;99.90;;;;;;5046692;28;20207;-74
2023/07/31 12:31:13;;;;;;;4.45;2.85;;;22.50;99.90;;;;;;5045409;28;20222;-75
2023/07/31 12:33:39;;;;;;;4.22;2.58;;;22.70;99.90;;;;;;5050338;28;20214;-73
2023/07/31 12:36:14;;;;;;;3.50;2.90;;;22.80;99.90;;;;;;5051319;28;20675;-73
2023/07/31 12:38:40;;;;;;;9.55;3.20;;;22.80;99.90;;;;;;5040154;28;20227;-73
2023/07/31 12:41:08;;;;;;;6.28;2.80;;;23.00;99.90;;;;;;5039055;28;20203;-73
2023/07/31 12:43:39;;;;;;;7.00;3.30;;;23.10;99.90;;;;;;5041875;28;20646;-74
2023/07/31 12:46:05;;;;;;;3.97;2.95;;;23.20;99.90;;;;;;5037355;28;20212;-73
2023/07/31 12:48:32;;;;;;;4.93;3.55;;;23.10;99.90;;;;;;5043018;28;20643;-73